Time;durP1;ratioP1;P1;durP2;ratioP2;P2;SDS_P1;SDS_P2;PMS_P1;PMS_P2;Temp;Humidity;BMP_temperature;BMP_pressure;BME280_temperature;BME280_humidity;BME280_pressure;Samples;Min_cycle;Max_cycle;Signal;HPM_P1;HPM_P2
2023/07/27 00:01:21;;;;;;;3.93;3.63;;;13.50;99.90;;;;;;4952684;28;20973;-65
2023/07/27 00:03:48;;;;;;;3.37;2.93;;;13.50;99.90;;;;;;4952534;28;20482;-65
2023/07/27 00:06:14;;;;;;;5.37;3.60;;;13.40;99.90;;;;;;4952151;28;20465;-65
2023/07/27 00:08:43;;;;;;;3.40;3.10;;;13.40;99.90;;;;;;4953115;28;20547;-65
2023/07/27 00:11:09;;;;;;;3.17;2.97;;;13.30;99.90;;;;;;4952875;28;20466;-65
2023/07/27 00:13:36;;;;;;;3.50;3.20;;;13.30;99.90;;;;;;4952396;28;20495;-65
2023/07/27 00:16:03;;;;;;;3.93;3.67;;;13.20;99.90;;;;;;4951913;28;20583;-65
2023/07/27 00:18:30;;;;;;;2.97;2.77;;;13.20;99.90;;;;;;4952433;28;20900;-65
2023/07/27 00:20:57;;;;;;;4.50;3.50;;;13.10;99.90;;;;;;4952619;28;20465;-65
2023/07/27 00:23:23;;;;;;;4.00;3.70;;;13.10;99.90;;;;;;4951386;28;20456;-65
2023/07/27 00:25:52;;;;;;;3.43;3.23;;;13.00;99.90;;;;;;4951969;28;21008;-64
2023/07/27 00:28:18;;;;;;;3.70;3.30;;;13.00;99.90;;;;;;4951940;28;20996;-64
2023/07/27 00:30:45;;;;;;;4.03;3.47;;;13.00;99.90;;;;;;4952657;28;20554;-64
2023/07/27 00:33:12;;;;;;;3.90;3.53;;;13.00;99.90;;;;;;4951862;28;21009;-65
2023/07/27 00:35:39;;;;;;;3.77;3.47;;;12.90;99.90;;;;;;4952169;29;20508;-65
2023/07/27 00:38:06;;;;;;;4.73;4.27;;;12.90;99.90;;;;;;4951360;28;20463;-65
2023/07/27 00:40:33;;;;;;;4.93;3.90;;;12.80;99.90;;;;;;4952069;28;20459;-65
2023/07/27 00:43:01;;;;;;;5.93;3.90;;;12.80;99.90;;;;;;4951935;28;20950;-65
2023/07/27 00:45:28;;;;;;;3.60;3.20;;;12.80;99.90;;;;;;4951951;28;20594;-65
2023/07/27 00:47:55;;;;;;;3.43;3.17;;;12.70;99.90;;;;;;4951010;28;20494;-64
2023/07/27 00:50:22;;;;;;;4.60;4.20;;;12.70;99.90;;;;;;4950915;28;20456;-65
2023/07/27 00:52:49;;;;;;;4.80;4.40;;;12.70;99.90;;;;;;4951910;28;20494;-65
2023/07/27 00:55:16;;;;;;;3.83;3.47;;;12.70;99.90;;;;;;4951795;28;20461;-65
2023/07/27 00:57:43;;;;;;;4.03;3.73;;;12.60;99.90;;;;;;4951406;28;20462;-65
2023/07/27 01:00:12;;;;;;;3.87;3.57;;;12.60;99.90;;;;;;4952271;28;20458;-65
2023/07/27 01:02:40;;;;;;;4.57;4.00;;;12.60;99.90;;;;;;4952223;28;20463;-64
2023/07/27 01:05:07;;;;;;;4.03;3.73;;;12.50;99.90;;;;;;4951711;28;20495;-65
2023/07/27 01:07:34;;;;;;;3.80;3.33;;;12.50;99.90;;;;;;4950977;28;21082;-64
2023/07/27 01:10:01;;;;;;;5.60;4.70;;;12.50;99.90;;;;;;4951502;28;20448;-64
2023/07/27 01:12:39;;;;;;;4.53;3.63;;;12.50;99.90;;;;;;4951714;28;20495;-65
2023/07/27 01:15:14;;;;;;;5.03;3.83;;;12.40;99.90;;;;;;4951417;28;20501;-66
2023/07/27 01:17:45;;;;;;;3.80;3.43;;;12.30;99.90;;;;;;4950727;28;20470;-65
2023/07/27 01:20:20;;;;;;;7.40;4.23;;;12.30;99.90;;;;;;4951448;28;20455;-65
2023/07/27 01:23:35;;;;;;;5.27;4.30;;;12.30;99.90;;;;;;4950583;28;20964;-65
2023/07/27 01:26:35;;;;;;;4.80;3.90;;;12.30;99.90;;;;;;4933870;28;20517;-65
2023/07/27 01:29:09;;;;;;;5.47;4.97;;;12.20;99.90;;;;;;4948157;29;20468;-65
2023/07/27 01:31:42;;;;;;;4.83;4.43;;;12.20;99.90;;;;;;4951457;28;20455;-66
2023/07/27 01:34:15;;;;;;;4.27;3.97;;;12.20;99.90;;;;;;4951042;28;20502;-64
2023/07/27 01:36:43;;;;;;;4.07;3.77;;;12.10;99.90;;;;;;4950425;28;20491;-65
2023/07/27 01:39:14;;;;;;;4.10;3.77;;;12.10;99.90;;;;;;4951411;28;20811;-65
2023/07/27 01:41:42;;;;;;;4.20;3.83;;;12.10;99.90;;;;;;4951337;28;20888;-65
2023/07/27 01:44:11;;;;;;;3.90;3.60;;;12.00;99.90;;;;;;4951056;28;20482;-65
2023/07/27 01:46:40;;;;;;;5.00;3.70;;;12.00;99.90;;;;;;4950065;28;20498;-65
2023/07/27 01:49:09;;;;;;;4.40;4.10;;;12.00;99.90;;;;;;4950789;28;20463;-65
2023/07/27 01:51:38;;;;;;;4.10;3.80;;;12.00;99.90;;;;;;4951131;28;20571;-65
2023/07/27 01:54:07;;;;;;;4.80;4.40;;;12.00;99.90;;;;;;4951156;28;20503;-65
2023/07/27 01:56:34;;;;;;;4.30;3.80;;;12.00;99.90;;;;;;4950187;28;20459;-65
2023/07/27 01:59:02;;;;;;;4.33;3.90;;;12.00;99.90;;;;;;4950820;28;20846;-65
2023/07/27 02:01:30;;;;;;;4.00;3.63;;;12.00;99.90;;;;;;4950598;28;20472;-65
2023/07/27 02:03:59;;;;;;;4.70;4.30;;;12.00;99.90;;;;;;4950605;28;20483;-65
2023/07/27 02:06:26;;;;;;;3.83;3.63;;;12.00;99.90;;;;;;4950182;28;21197;-65
2023/07/27 02:08:52;;;;;;;5.10;4.03;;;12.00;99.90;;;;;;4950733;28;20467;-65
2023/07/27 02:11:20;;;;;;;3.70;3.40;;;11.90;99.90;;;;;;4950798;28;20877;-65
2023/07/27 02:13:55;;;;;;;5.07;4.67;;;11.90;99.90;;;;;;4950523;28;21009;-65
2023/07/27 02:16:37;;;;;;;4.73;4.33;;;11.90;99.90;;;;;;4950030;28;20959;-64
2023/07/27 02:19:07;;;;;;;4.07;3.67;;;11.90;99.90;;;;;;4950618;28;20550;-64
2023/07/27 02:21:36;;;;;;;5.80;4.67;;;11.90;99.90;;;;;;4950432;28;20908;-64
2023/07/27 02:24:04;;;;;;;4.83;4.43;;;11.90;99.90;;;;;;4949394;28;21229;-66
2023/07/27 02:26:32;;;;;;;5.03;4.53;;;11.90;99.90;;;;;;4949823;28;20460;-65
2023/07/27 02:28:59;;;;;;;3.73;3.43;;;12.00;99.90;;;;;;4950727;28;20455;-65
2023/07/27 02:31:25;;;;;;;5.10;4.80;;;12.00;99.90;;;;;;4950401;28;20493;-65
2023/07/27 02:33:52;;;;;;;4.47;4.10;;;11.90;99.90;;;;;;4950276;28;20525;-65
2023/07/27 02:36:20;;;;;;;3.30;3.10;;;12.00;99.90;;;;;;4949555;28;20540;-65
2023/07/27 02:38:47;;;;;;;4.00;3.63;;;12.00;99.90;;;;;;4950180;28;20480;-65
2023/07/27 02:41:14;;;;;;;5.30;4.87;;;12.00;99.90;;;;;;4950850;28;20567;-66
2023/07/27 02:43:41;;;;;;;3.47;3.17;;;12.10;99.90;;;;;;4950351;28;21045;-65
2023/07/27 02:46:08;;;;;;;4.60;4.20;;;12.10;99.90;;;;;;4949508;28;21024;-65
2023/07/27 02:48:35;;;;;;;4.40;3.83;;;12.10;99.90;;;;;;4950241;28;20491;-64
2023/07/27 02:51:02;;;;;;;5.40;3.60;;;12.10;99.90;;;;;;4950075;28;20474;-65
2023/07/27 02:53:30;;;;;;;3.70;3.30;;;12.10;99.90;;;;;;4950129;28;20491;-65
2023/07/27 02:55:58;;;;;;;3.60;3.40;;;12.10;99.90;;;;;;4949680;28;20550;-64
2023/07/27 02:58:25;;;;;;;6.30;5.67;;;12.10;99.90;;;;;;4950368;28;20459;-64
2023/07/27 03:00:53;;;;;;;5.43;3.63;;;12.10;99.90;;;;;;4950166;28;20473;-65
2023/07/27 03:03:20;;;;;;;3.70;3.50;;;12.10;99.90;;;;;;4950196;28;20539;-64
2023/07/27 03:05:47;;;;;;;3.27;3.07;;;12.10;99.90;;;;;;4949847;28;20490;-64
2023/07/27 03:08:14;;;;;;;5.47;4.13;;;12.10;99.90;;;;;;4949811;28;20946;-65
2023/07/27 03:10:42;;;;;;;4.07;3.83;;;12.20;99.90;;;;;;4950206;28;20456;-64
2023/07/27 03:13:09;;;;;;;7.00;3.90;;;12.20;99.90;;;;;;4951087;28;20490;-65
2023/07/27 03:15:40;;;;;;;4.50;3.90;;;12.20;99.90;;;;;;4953471;28;20862;-65
2023/07/27 03:18:07;;;;;;;4.57;3.93;;;12.20;99.90;;;;;;4953024;28;20466;-65
2023/07/27 03:20:39;;;;;;;4.20;3.90;;;12.30;99.90;;;;;;4953521;28;20463;-65
2023/07/27 03:23:05;;;;;;;4.30;4.00;;;12.30;99.90;;;;;;4952711;28;20994;-65
2023/07/27 03:25:33;;;;;;;5.70;5.03;;;12.30;99.90;;;;;;4953635;28;20483;-65
2023/07/27 03:28:01;;;;;;;5.20;4.10;;;12.30;99.90;;;;;;4952949;28;20459;-65
2023/07/27 03:30:28;;;;;;;5.63;4.33;;;12.30;99.90;;;;;;4953482;28;20477;-65
2023/07/27 03:32:55;;;;;;;8.33;3.90;;;12.40;99.90;;;;;;4953712;28;20500;-65
2023/07/27 03:35:21;;;;;;;4.70;4.30;;;12.40;99.90;;;;;;4953693;28;20474;-65
2023/07/27 03:37:48;;;;;;;4.43;4.03;;;12.40;99.90;;;;;;4952832;28;20470;-65
2023/07/27 03:40:15;;;;;;;4.90;4.50;;;12.40;99.90;;;;;;4953593;28;21215;-66
2023/07/27 03:42:42;;;;;;;3.70;3.50;;;12.50;99.90;;;;;;4953213;28;20455;-65
2023/07/27 03:45:11;;;;;;;3.70;3.40;;;12.40;99.90;;;;;;4953107;28;20486;-66
2023/07/27 03:47:38;;;;;;;4.60;4.00;;;12.40;99.90;;;;;;4952553;28;20455;-65
2023/07/27 03:50:06;;;;;;;5.63;5.23;;;12.40;99.90;;;;;;4953052;28;20458;-65
2023/07/27 03:52:32;;;;;;;4.27;3.83;;;12.40;99.90;;;;;;4952888;28;20466;-65
2023/07/27 03:54:59;;;;;;;4.10;3.80;;;12.50;99.90;;;;;;4949785;28;20454;-65
2023/07/27 03:57:26;;;;;;;4.47;4.17;;;12.40;99.90;;;;;;4952312;28;20551;-66
2023/07/27 03:59:55;;;;;;;4.50;3.90;;;12.50;99.90;;;;;;4952919;28;20460;-65
2023/07/27 04:02:23;;;;;;;4.50;4.10;;;12.50;99.90;;;;;;4953187;28;21156;-65
2023/07/27 04:04:51;;;;;;;4.13;3.83;;;12.50;99.90;;;;;;4952994;28;20583;-66
2023/07/27 04:07:18;;;;;;;4.80;4.40;;;12.50;99.90;;;;;;4952192;28;20479;-66
2023/07/27 04:09:45;;;;;;;4.10;3.80;;;12.60;99.90;;;;;;4952711;28;20455;-65
2023/07/27 04:12:12;;;;;;;5.33;4.87;;;12.60;99.90;;;;;;4952609;28;20939;-66
2023/07/27 04:14:39;;;;;;;3.80;3.50;;;12.60;99.90;;;;;;4952371;28;20583;-65
2023/07/27 04:17:07;;;;;;;4.23;3.93;;;12.60;99.90;;;;;;4951661;28;20459;-65
2023/07/27 04:19:35;;;;;;;4.30;3.90;;;12.60;99.90;;;;;;4950982;28;20464;-64
2023/07/27 04:22:02;;;;;;;4.33;4.03;;;12.60;99.90;;;;;;4951604;28;20811;-65
2023/07/27 04:24:29;;;;;;;4.07;3.77;;;12.60;99.90;;;;;;4950943;28;20504;-65
2023/07/27 04:26:56;;;;;;;3.97;3.77;;;12.70;99.90;;;;;;4951832;29;20470;-65
2023/07/27 04:29:23;;;;;;;4.17;3.60;;;12.70;99.90;;;;;;4952672;28;20466;-65
2023/07/27 04:31:50;;;;;;;4.47;4.17;;;12.70;99.90;;;;;;4952557;28;20463;-65
2023/07/27 04:34:16;;;;;;;4.30;4.00;;;12.80;99.90;;;;;;4952253;28;20586;-65
2023/07/27 04:36:47;;;;;;;4.47;4.07;;;12.80;99.90;;;;;;4951483;28;20492;-65
2023/07/27 04:39:14;;;;;;;4.90;4.23;;;12.80;99.90;;;;;;4952584;28;20997;-65
2023/07/27 04:41:41;;;;;;;4.43;3.90;;;12.90;99.90;;;;;;4952312;28;20462;-65
2023/07/27 04:44:08;;;;;;;4.37;3.97;;;12.90;99.90;;;;;;4952019;28;20564;-65
2023/07/27 04:46:35;;;;;;;4.33;3.70;;;12.90;99.90;;;;;;4951372;28;20543;-65
2023/07/27 04:49:02;;;;;;;3.93;3.60;;;13.00;99.90;;;;;;4951707;28;20456;-64
2023/07/27 04:51:28;;;;;;;5.83;4.63;;;13.00;99.90;;;;;;4951879;28;20501;-65
2023/07/27 04:53:57;;;;;;;4.17;3.77;;;12.90;99.90;;;;;;4951946;29;20502;-66
2023/07/27 04:56:23;;;;;;;5.00;4.03;;;12.90;99.90;;;;;;4951485;28;20456;-64
2023/07/27 04:58:50;;;;;;;5.87;3.90;;;13.00;99.90;;;;;;4952042;28;20547;-65
2023/07/27 05:01:17;;;;;;;4.60;4.30;;;13.00;99.90;;;;;;4951846;28;21119;-65
2023/07/27 05:03:44;;;;;;;4.20;3.90;;;13.10;99.90;;;;;;4951463;28;20494;-65
2023/07/27 05:06:11;;;;;;;6.83;4.70;;;13.10;99.90;;;;;;4951108;28;20462;-65
2023/07/27 05:08:38;;;;;;;7.87;4.30;;;13.10;99.90;;;;;;4951909;28;20464;-65
2023/07/27 05:11:07;;;;;;;3.97;3.63;;;13.20;99.90;;;;;;4951853;28;20462;-66
2023/07/27 05:13:33;;;;;;;4.77;3.60;;;13.20;99.90;;;;;;4951297;28;20586;-65
2023/07/27 05:16:01;;;;;;;5.10;4.70;;;13.30;99.90;;;;;;4950830;28;20463;-64
2023/07/27 05:18:28;;;;;;;5.80;4.67;;;13.30;99.90;;;;;;4951347;28;20495;-65
2023/07/27 05:20:55;;;;;;;3.90;3.70;;;13.30;99.90;;;;;;4951740;28;20480;-65
2023/07/27 05:23:22;;;;;;;5.00;4.60;;;13.40;99.90;;;;;;4950612;28;20463;-65
2023/07/27 05:25:49;;;;;;;4.87;4.37;;;13.40;99.90;;;;;;4951316;28;20460;-66
2023/07/27 05:28:17;;;;;;;4.97;4.00;;;13.40;99.90;;;;;;4951003;28;20458;-65
2023/07/27 05:30:44;;;;;;;5.00;3.93;;;13.50;99.90;;;;;;4951436;28;20460;-65
2023/07/27 05:33:11;;;;;;;4.73;4.33;;;13.60;99.90;;;;;;4951000;28;20555;-66
2023/07/27 05:35:38;;;;;;;5.17;4.77;;;13.60;99.90;;;;;;4950650;28;20572;-65
2023/07/27 05:38:05;;;;;;;5.20;4.70;;;13.70;99.90;;;;;;4950315;28;21155;-65
2023/07/27 05:40:35;;;;;;;4.70;4.30;;;13.80;99.90;;;;;;4951143;28;20551;-65
2023/07/27 05:43:01;;;;;;;4.70;4.40;;;13.80;99.90;;;;;;4950817;28;20456;-65
2023/07/27 05:45:30;;;;;;;5.13;4.63;;;13.90;99.90;;;;;;4951127;28;20473;-66
2023/07/27 05:47:56;;;;;;;5.23;4.30;;;14.00;99.90;;;;;;4950577;28;21191;-65
2023/07/27 05:50:23;;;;;;;4.73;4.33;;;14.00;99.90;;;;;;4951354;28;20560;-66
2023/07/27 05:52:50;;;;;;;4.63;4.23;;;14.10;99.90;;;;;;4950999;28;20457;-65
2023/07/27 05:55:17;;;;;;;5.07;4.67;;;14.10;99.90;;;;;;4950520;28;20591;-65
2023/07/27 05:57:44;;;;;;;3.97;3.53;;;14.20;99.90;;;;;;4950102;28;20540;-65
2023/07/27 06:00:11;;;;;;;4.70;4.40;;;14.20;99.90;;;;;;4951056;28;20460;-65
2023/07/27 06:02:40;;;;;;;4.40;4.00;;;14.30;99.90;;;;;;4950861;28;20464;-65
2023/07/27 06:05:08;;;;;;;4.53;4.20;;;14.30;99.90;;;;;;4950674;28;20480;-65
2023/07/27 06:07:34;;;;;;;5.03;4.73;;;14.30;99.90;;;;;;4949917;28;20453;-65
2023/07/27 06:10:01;;;;;;;4.80;4.40;;;14.40;99.90;;;;;;4950599;28;20456;-65
2023/07/27 06:12:28;;;;;;;4.10;3.70;;;14.40;99.90;;;;;;4951015;28;20456;-66
2023/07/27 06:14:55;;;;;;;4.10;3.80;;;14.50;99.90;;;;;;4950500;28;20507;-66
2023/07/27 06:17:23;;;;;;;4.40;4.00;;;14.60;99.90;;;;;;4950044;28;20469;-65
2023/07/27 06:19:51;;;;;;;5.40;5.00;;;14.60;99.90;;;;;;4950386;28;20496;-66
2023/07/27 06:22:18;;;;;;;4.57;4.17;;;14.70;99.90;;;;;;4948752;28;20953;-65
2023/07/27 06:24:45;;;;;;;4.83;4.50;;;14.80;99.90;;;;;;4950552;28;20474;-65
2023/07/27 06:27:12;;;;;;;5.40;4.10;;;14.80;99.90;;;;;;4949782;28;20463;-65
2023/07/27 06:29:39;;;;;;;5.50;5.10;;;14.90;99.90;;;;;;4949942;28;20452;-65
2023/07/27 06:32:06;;;;;;;7.57;4.67;;;15.00;99.90;;;;;;4949601;28;20551;-65
2023/07/27 06:34:33;;;;;;;5.37;4.90;;;15.10;99.90;;;;;;4942462;29;21098;-65
2023/07/27 06:37:01;;;;;;;4.93;4.53;;;15.20;99.90;;;;;;4949714;29;20507;-65
2023/07/27 06:39:28;;;;;;;5.07;4.57;;;15.20;99.90;;;;;;4949949;29;20457;-65
2023/07/27 06:41:56;;;;;;;4.67;4.30;;;15.20;99.90;;;;;;4949025;29;20464;-65
2023/07/27 06:44:22;;;;;;;4.77;4.30;;;15.30;99.90;;;;;;4949238;29;20854;-65
2023/07/27 06:46:49;;;;;;;5.00;4.60;;;15.40;99.90;;;;;;4949531;28;20457;-65
2023/07/27 06:49:16;;;;;;;4.20;3.90;;;15.40;99.90;;;;;;4953023;28;20480;-64
2023/07/27 06:51:43;;;;;;;4.80;4.37;;;15.40;99.90;;;;;;4954088;29;20962;-65
2023/07/27 06:54:11;;;;;;;5.30;4.77;;;15.50;99.90;;;;;;4953970;28;20498;-66
2023/07/27 06:56:38;;;;;;;6.60;4.83;;;15.50;99.90;;;;;;4953364;29;21146;-66
2023/07/27 06:59:05;;;;;;;4.83;4.40;;;15.50;99.90;;;;;;4953961;29;20456;-66
2023/07/27 07:01:32;;;;;;;4.57;4.13;;;15.50;99.90;;;;;;4953997;29;20480;-65
2023/07/27 07:03:58;;;;;;;5.47;5.07;;;15.60;99.90;;;;;;4953887;29;21180;-65
2023/07/27 07:06:25;;;;;;;4.43;4.03;;;15.60;99.90;;;;;;4953066;29;20464;-65
2023/07/27 07:08:52;;;;;;;4.37;4.07;;;15.60;99.90;;;;;;4949558;29;20537;-65
2023/07/27 07:11:20;;;;;;;4.50;4.10;;;15.60;99.90;;;;;;4934635;29;20468;-65
2023/07/27 07:13:47;;;;;;;5.00;4.60;;;15.60;99.90;;;;;;4934740;29;20500;-65
2023/07/27 07:16:15;;;;;;;7.80;4.00;;;15.70;99.90;;;;;;4937942;29;21242;-65
2023/07/27 07:18:42;;;;;;;5.00;4.30;;;15.80;99.90;;;;;;4953309;29;20468;-65
2023/07/27 07:21:09;;;;;;;5.27;4.83;;;15.80;99.90;;;;;;4952340;28;20462;-64
2023/07/27 07:23:35;;;;;;;5.50;5.00;;;15.90;99.90;;;;;;4973742;23;21164;-65
2023/07/27 07:26:02;;;;;;;4.50;4.20;;;16.00;99.90;;;;;;4961340;28;20463;-65
2023/07/27 07:28:31;;;;;;;5.17;4.80;;;16.00;99.90;;;;;;4953788;28;20509;-66
2023/07/27 07:30:58;;;;;;;4.40;4.10;;;16.00;99.90;;;;;;4957479;28;20469;-66
2023/07/27 07:33:24;;;;;;;4.90;4.20;;;16.10;99.90;;;;;;4951986;28;20457;-66
2023/07/27 07:35:51;;;;;;;5.00;4.20;;;16.20;99.90;;;;;;4950823;28;20500;-65
2023/07/27 07:38:18;;;;;;;5.23;4.73;;;16.20;99.90;;;;;;4951968;28;20458;-66
2023/07/27 07:40:46;;;;;;;4.17;3.87;;;16.30;99.90;;;;;;4949204;28;20580;-66
2023/07/27 07:43:13;;;;;;;4.80;4.13;;;16.30;99.90;;;;;;4951885;28;20460;-66
2023/07/27 07:45:42;;;;;;;4.63;4.27;;;16.40;99.90;;;;;;4949364;28;20894;-66
2023/07/27 07:48:09;;;;;;;5.40;3.90;;;16.30;99.90;;;;;;4945176;29;20988;-65
2023/07/27 07:50:37;;;;;;;4.83;4.37;;;16.40;99.90;;;;;;4951530;28;20466;-66
2023/07/27 07:53:05;;;;;;;4.30;3.90;;;16.40;99.90;;;;;;4951742;28;20460;-66
2023/07/27 07:55:35;;;;;;;4.53;3.70;;;16.40;99.90;;;;;;4949813;28;20497;-66
2023/07/27 07:58:03;;;;;;;5.73;5.20;;;16.40;99.90;;;;;;4951076;28;20462;-66
2023/07/27 08:00:30;;;;;;;5.40;5.00;;;16.50;99.90;;;;;;4943301;28;20584;-66
2023/07/27 08:02:58;;;;;;;4.50;4.10;;;16.50;99.90;;;;;;4951495;28;20462;-65
2023/07/27 08:05:25;;;;;;;5.07;4.67;;;16.50;99.90;;;;;;4954498;28;20581;-65
2023/07/27 08:07:52;;;;;;;4.67;4.27;;;16.50;99.90;;;;;;4950972;28;20504;-65
2023/07/27 08:10:19;;;;;;;4.67;4.27;;;16.50;99.90;;;;;;4953785;28;20473;-66
2023/07/27 08:12:49;;;;;;;4.47;4.07;;;16.50;99.90;;;;;;4951413;28;20850;-65
2023/07/27 08:15:17;;;;;;;4.60;4.10;;;16.50;99.90;;;;;;4954982;28;20493;-66
2023/07/27 08:17:44;;;;;;;5.20;4.70;;;16.50;99.90;;;;;;4950387;29;20457;-66
2023/07/27 08:20:13;;;;;;;4.00;3.70;;;16.60;99.90;;;;;;4950670;28;20496;-65
2023/07/27 08:22:40;;;;;;;4.53;4.13;;;16.60;99.90;;;;;;4950166;28;20456;-66
2023/07/27 08:25:07;;;;;;;4.87;4.33;;;16.60;99.90;;;;;;4912354;28;1115433;-66
2023/07/27 08:27:35;;;;;;;5.20;4.70;;;16.60;99.90;;;;;;4951108;28;20990;-66
2023/07/27 08:30:02;;;;;;;3.90;3.60;;;16.60;99.90;;;;;;4951834;28;20484;-66
2023/07/27 08:32:29;;;;;;;5.03;4.63;;;16.70;99.90;;;;;;4952361;28;20462;-65
2023/07/27 08:34:56;;;;;;;4.80;3.60;;;16.70;99.90;;;;;;4952007;28;20588;-65
2023/07/27 08:37:24;;;;;;;4.10;3.80;;;16.60;99.90;;;;;;4951887;28;20453;-66
2023/07/27 08:39:51;;;;;;;3.90;3.60;;;16.60;99.90;;;;;;4950768;28;20458;-66
2023/07/27 08:42:19;;;;;;;4.50;4.10;;;16.60;99.90;;;;;;4952063;28;20962;-65
2023/07/27 08:44:46;;;;;;;4.27;3.97;;;16.50;99.90;;;;;;4952147;28;20483;-66
2023/07/27 08:47:14;;;;;;;5.20;4.80;;;16.50;99.90;;;;;;4951258;28;20461;-64
2023/07/27 08:49:43;;;;;;;4.90;4.50;;;16.50;99.90;;;;;;4949220;28;21186;-66
2023/07/27 08:52:13;;;;;;;4.87;4.40;;;16.50;99.90;;;;;;4947707;28;21002;-65
2023/07/27 08:54:41;;;;;;;5.00;4.60;;;16.50;99.90;;;;;;4949573;28;20496;-64
2023/07/27 08:57:08;;;;;;;5.67;5.17;;;16.50;99.90;;;;;;4949703;28;20500;-65
2023/07/27 08:59:35;;;;;;;4.90;4.60;;;16.60;99.90;;;;;;4950989;28;20535;-64
2023/07/27 09:02:02;;;;;;;4.03;3.73;;;16.60;99.90;;;;;;4950608;28;21274;-64
2023/07/27 09:04:29;;;;;;;5.33;4.70;;;16.60;99.90;;;;;;4950792;29;20584;-65
2023/07/27 09:06:56;;;;;;;3.93;3.67;;;16.50;99.90;;;;;;4950025;28;20985;-65
2023/07/27 09:09:25;;;;;;;4.63;4.33;;;16.50;99.90;;;;;;4950664;28;20461;-65
2023/07/27 09:11:54;;;;;;;6.27;5.43;;;16.50;99.90;;;;;;4949912;28;21391;-64
2023/07/27 09:14:21;;;;;;;4.30;4.00;;;16.50;99.90;;;;;;4950420;28;20488;-65
2023/07/27 09:16:49;;;;;;;4.80;4.17;;;16.50;99.90;;;;;;4950023;28;20467;-65
2023/07/27 09:19:18;;;;;;;4.00;3.70;;;16.50;99.90;;;;;;4950106;28;20464;-65
2023/07/27 09:21:48;;;;;;;5.17;4.53;;;16.60;99.90;;;;;;4950555;28;20459;-64
2023/07/27 09:24:16;;;;;;;6.23;5.03;;;16.60;99.90;;;;;;4949700;28;20551;-65
2023/07/27 09:26:47;;;;;;;5.43;4.47;;;16.60;99.90;;;;;;4949440;28;20531;-65
2023/07/27 09:29:16;;;;;;;5.33;4.93;;;16.60;99.90;;;;;;4950686;28;20462;-65
2023/07/27 09:31:47;;;;;;;6.23;5.73;;;16.70;99.90;;;;;;4950439;28;20538;-65
2023/07/27 09:34:14;;;;;;;4.57;4.17;;;16.70;99.90;;;;;;4950098;28;20565;-66
2023/07/27 09:36:41;;;;;;;5.57;5.17;;;16.70;99.90;;;;;;4949240;28;20961;-65
2023/07/27 09:39:09;;;;;;;6.37;5.77;;;16.70;99.90;;;;;;4950243;28;20468;-65
2023/07/27 09:41:36;;;;;;;6.53;4.40;;;16.60;99.90;;;;;;4950420;29;20528;-65
2023/07/27 09:44:03;;;;;;;5.50;5.00;;;16.60;99.90;;;;;;4949717;28;20995;-65
2023/07/27 09:46:32;;;;;;;5.83;5.27;;;16.60;99.90;;;;;;4949460;28;20455;-65
2023/07/27 09:48:59;;;;;;;4.87;4.47;;;16.60;99.90;;;;;;4949589;28;20464;-65
2023/07/27 09:51:27;;;;;;;6.00;5.57;;;16.60;99.90;;;;;;4950084;28;20538;-65
2023/07/27 09:53:56;;;;;;;4.80;4.50;;;16.60;99.90;;;;;;4949367;29;20481;-65
2023/07/27 09:56:23;;;;;;;6.47;5.60;;;16.60;99.90;;;;;;4949260;29;20504;-65
2023/07/27 09:58:50;;;;;;;5.70;5.20;;;16.60;99.90;;;;;;4949584;29;20458;-65
2023/07/27 10:01:17;;;;;;;9.50;5.30;;;16.60;99.90;;;;;;4950321;29;20463;-65
2023/07/27 10:03:46;;;;;;;5.40;4.90;;;16.60;99.90;;;;;;4949836;28;20480;-66
2023/07/27 10:06:16;;;;;;;5.90;4.30;;;16.60;99.90;;;;;;4949462;28;20504;-65
2023/07/27 10:08:44;;;;;;;5.70;5.13;;;16.50;99.90;;;;;;4950129;28;20948;-66
2023/07/27 10:11:11;;;;;;;7.90;6.20;;;16.50;99.90;;;;;;4949662;28;20465;-65
2023/07/27 10:13:40;;;;;;;5.77;5.27;;;16.50;99.90;;;;;;4949608;28;20484;-65
2023/07/27 10:16:10;;;;;;;6.80;5.50;;;16.40;99.90;;;;;;4948937;28;20659;-66
2023/07/27 10:18:41;;;;;;;5.40;4.90;;;16.40;99.90;;;;;;4949908;28;20478;-66
2023/07/27 10:21:24;;;;;;;7.80;7.10;;;16.40;99.90;;;;;;4949948;29;20466;-65
2023/07/27 10:23:58;;;;;;;5.80;5.40;;;16.40;99.90;;;;;;4949498;28;20603;-65
2023/07/27 10:26:55;;;;;;;7.90;5.33;;;16.40;99.90;;;;;;4949058;28;20453;-65
2023/07/27 10:29:23;;;;;;;6.80;5.87;;;16.40;99.90;;;;;;4909468;29;20832;-66
2023/07/27 10:32:06;;;;;;;5.97;5.47;;;16.40;99.90;;;;;;4940775;28;20460;-65
2023/07/27 10:34:34;;;;;;;4.77;4.37;;;16.30;99.90;;;;;;4948423;28;20494;-67
2023/07/27 10:37:03;;;;;;;4.80;4.40;;;16.20;99.90;;;;;;4948760;28;20502;-67
2023/07/27 10:39:32;;;;;;;4.60;4.30;;;16.20;99.90;;;;;;4948858;28;20563;-67
2023/07/27 10:42:07;;;;;;;5.10;4.60;;;16.20;99.90;;;;;;4949665;28;20461;-67
2023/07/27 10:44:45;;;;;;;5.60;4.77;;;16.20;99.90;;;;;;4949574;28;20464;-67
2023/07/27 10:47:14;;;;;;;4.23;3.83;;;16.20;99.90;;;;;;4947656;28;20543;-66
2023/07/27 10:49:42;;;;;;;4.23;3.83;;;16.10;99.90;;;;;;4947959;29;21303;-67
2023/07/27 10:52:14;;;;;;;4.47;4.17;;;16.10;99.90;;;;;;4948912;28;20432;-67
2023/07/27 10:54:42;;;;;;;4.70;4.20;;;16.20;99.90;;;;;;4948604;28;20497;-67
2023/07/27 10:57:10;;;;;;;7.57;5.00;;;16.20;99.90;;;;;;4947592;28;20540;-67
2023/07/27 10:59:39;;;;;;;3.90;3.63;;;16.20;99.90;;;;;;4949331;28;20453;-67
2023/07/27 11:02:11;;;;;;;3.97;3.67;;;16.20;99.90;;;;;;4949164;28;20454;-66
2023/07/27 11:04:40;;;;;;;3.90;3.60;;;16.20;99.90;;;;;;4948588;28;20515;-66
2023/07/27 11:07:07;;;;;;;4.40;4.10;;;16.20;99.90;;;;;;4948228;28;20867;-67
2023/07/27 11:09:35;;;;;;;4.33;4.00;;;16.20;99.90;;;;;;4948833;28;20465;-66
2023/07/27 11:12:02;;;;;;;6.00;5.40;;;16.20;99.90;;;;;;4948518;28;20552;-65
2023/07/27 11:14:29;;;;;;;3.30;3.10;;;16.30;99.90;;;;;;4948651;28;20473;-65
2023/07/27 11:16:56;;;;;;;4.03;3.73;;;16.20;99.90;;;;;;4947953;28;20556;-65
2023/07/27 11:19:26;;;;;;;7.80;3.30;;;16.20;99.90;;;;;;4949199;28;20457;-67
2023/07/27 11:21:54;;;;;;;3.80;3.50;;;16.20;99.90;;;;;;4948545;28;20552;-65
2023/07/27 11:24:21;;;;;;;4.93;4.63;;;16.30;99.90;;;;;;4946795;28;20476;-65
2023/07/27 11:26:50;;;;;;;4.40;4.00;;;16.20;99.90;;;;;;4948471;28;20837;-65
2023/07/27 11:29:17;;;;;;;3.97;3.67;;;16.30;99.90;;;;;;4949253;28;20456;-65
2023/07/27 11:31:54;;;;;;;4.77;4.37;;;16.40;99.90;;;;;;4949004;28;20453;-65
2023/07/27 11:34:25;;;;;;;4.57;4.17;;;16.40;99.90;;;;;;4933848;29;20480;-65
2023/07/27 11:36:54;;;;;;;3.90;3.60;;;16.40;99.90;;;;;;4951900;28;20489;-65
2023/07/27 11:39:22;;;;;;;4.50;4.10;;;16.50;99.90;;;;;;4952727;28;20463;-65
2023/07/27 11:41:51;;;;;;;4.17;3.83;;;16.50;99.90;;;;;;4952397;28;20847;-65
2023/07/27 11:44:20;;;;;;;5.47;5.07;;;16.50;99.90;;;;;;4952024;28;20503;-65
2023/07/27 11:46:49;;;;;;;4.50;4.20;;;16.60;99.90;;;;;;4951273;28;21096;-65
2023/07/27 11:49:16;;;;;;;5.50;5.10;;;16.60;99.90;;;;;;4952227;29;20567;-66
2023/07/27 11:51:45;;;;;;;5.33;4.33;;;16.60;99.90;;;;;;4952444;28;20910;-65
2023/07/27 11:54:22;;;;;;;4.97;4.50;;;16.70;99.90;;;;;;4951985;28;20469;-65
2023/07/27 11:56:53;;;;;;;5.47;5.00;;;16.70;99.90;;;;;;4951552;28;21041;-65
2023/07/27 11:59:20;;;;;;;4.90;4.50;;;16.80;99.90;;;;;;4952753;28;20455;-65
2023/07/27 12:01:48;;;;;;;6.50;4.57;;;16.90;99.90;;;;;;4952462;28;20458;-66
2023/07/27 12:04:15;;;;;;;4.20;3.80;;;16.90;99.90;;;;;;4935732;29;20501;-66
2023/07/27 12:06:43;;;;;;;5.10;4.70;;;17.00;99.90;;;;;;4951058;28;20454;-65
2023/07/27 12:09:11;;;;;;;5.10;4.70;;;17.00;99.90;;;;;;4952030;28;20457;-65
2023/07/27 12:11:38;;;;;;;6.00;5.03;;;17.00;99.90;;;;;;4951331;28;20457;-65
2023/07/27 12:14:07;;;;;;;4.67;4.33;;;17.00;99.90;;;;;;4950747;28;21315;-65
2023/07/27 12:16:38;;;;;;;6.73;6.23;;;17.00;99.90;;;;;;4950867;28;20489;-66
2023/07/27 12:19:07;;;;;;;5.37;4.97;;;17.00;99.90;;;;;;4951213;28;20466;-65
2023/07/27 12:21:34;;;;;;;5.77;5.23;;;17.00;99.90;;;;;;4951011;28;20482;-65
2023/07/27 12:24:02;;;;;;;5.70;5.20;;;17.00;99.90;;;;;;4951421;28;20486;-65
2023/07/27 12:26:29;;;;;;;6.97;5.40;;;17.00;99.90;;;;;;4950930;28;21020;-65
2023/07/27 12:28:56;;;;;;;5.00;4.70;;;17.10;99.90;;;;;;4951594;28;20459;-67
2023/07/27 12:31:24;;;;;;;4.83;4.53;;;17.10;99.90;;;;;;4951637;28;20446;-67
2023/07/27 12:33:51;;;;;;;5.77;5.23;;;17.10;99.90;;;;;;4949147;28;20485;-67
2023/07/27 12:36:18;;;;;;;5.73;5.30;;;17.10;99.90;;;;;;4950690;28;21134;-67
2023/07/27 12:38:45;;;;;;;6.17;5.53;;;17.10;99.90;;;;;;4951454;28;20460;-67
2023/07/27 12:41:13;;;;;;;6.50;5.90;;;17.10;99.90;;;;;;4951605;28;20459;-67
2023/07/27 12:43:40;;;;;;;6.33;5.73;;;17.10;99.90;;;;;;4951329;28;20477;-67
2023/07/27 12:46:07;;;;;;;5.17;4.80;;;17.10;99.90;;;;;;4949613;28;20919;-67
2023/07/27 12:48:35;;;;;;;5.57;5.17;;;17.10;99.90;;;;;;4951733;28;21470;-66
2023/07/27 12:51:02;;;;;;;4.90;4.50;;;17.20;99.90;;;;;;4949248;28;20453;-68
2023/07/27 12:53:29;;;;;;;5.97;5.50;;;17.20;99.90;;;;;;4950815;28;20498;-67